Time;durP1;ratioP1;P1;durP2;ratioP2;P2;SDS_P1;SDS_P2;PMS_P1;PMS_P2;Temp;Humidity;BMP_temperature;BMP_pressure;BME280_temperature;BME280_humidity;BME280_pressure;Samples;Min_cycle;Max_cycle;Signal;HPM_P1;HPM_P2
2022/03/03 00:02:23;;;;;;;6.15;4.85;;;-2.90;99.90;;;;;;4856718;29;20053;-74
2022/03/03 00:04:51;;;;;;;8.13;4.38;;;-2.90;99.90;;;;;;4855673;29;20057;-74
2022/03/03 00:07:19;;;;;;;10.20;5.57;;;-3.00;99.90;;;;;;4842195;29;20061;-73
2022/03/03 00:09:47;;;;;;;11.25;5.78;;;-3.00;99.90;;;;;;4873378;29;20060;-73
2022/03/03 00:12:14;;;;;;;10.30;5.95;;;-2.90;99.90;;;;;;4874349;29;20056;-74
2022/03/03 00:14:42;;;;;;;6.90;5.93;;;-2.80;99.90;;;;;;4874754;29;20403;-74
2022/03/03 00:17:10;;;;;;;7.78;5.80;;;-2.70;99.90;;;;;;4874409;29;20057;-73
2022/03/03 00:19:37;;;;;;;5.95;5.53;;;-2.90;99.90;;;;;;4874189;29;20131;-74
2022/03/03 00:22:05;;;;;;;6.55;5.68;;;-3.20;99.90;;;;;;4874217;29;20048;-74
2022/03/03 00:24:33;;;;;;;10.98;7.95;;;-3.40;99.90;;;;;;4863769;29;20414;-73
2022/03/03 00:27:05;;;;;;;5.35;4.85;;;-3.40;99.90;;;;;;4868161;29;20060;-74
2022/03/03 00:29:36;;;;;;;6.60;5.63;;;-3.30;99.90;;;;;;4866797;29;20060;-74
2022/03/03 00:32:07;;;;;;;13.13;5.90;;;-3.40;99.90;;;;;;4874183;29;20049;-74
2022/03/03 00:34:35;;;;;;;10.38;5.97;;;-3.30;99.90;;;;;;4874570;29;20053;-74
2022/03/03 00:37:03;;;;;;;8.05;5.63;;;-3.20;99.90;;;;;;4865351;29;20065;-73
2022/03/03 00:39:31;;;;;;;8.70;6.65;;;-3.10;99.90;;;;;;4854749;29;20057;-75
2022/03/03 00:41:59;;;;;;;7.88;5.28;;;-3.00;99.90;;;;;;4855519;29;20065;-73
2022/03/03 00:44:26;;;;;;;12.73;6.13;;;-3.20;99.90;;;;;;4855638;29;20050;-74
2022/03/03 00:46:54;;;;;;;8.57;4.97;;;-3.50;99.90;;;;;;4855972;29;20056;-73
2022/03/03 00:49:22;;;;;;;11.10;5.57;;;-3.60;99.90;;;;;;4854554;29;20721;-73
2022/03/03 00:51:50;;;;;;;11.07;6.20;;;-3.60;99.90;;;;;;4854688;29;20056;-73
2022/03/03 00:54:18;;;;;;;11.13;8.57;;;-3.50;99.90;;;;;;4856097;29;20124;-73
2022/03/03 00:56:48;;;;;;;11.73;5.05;;;-3.40;99.90;;;;;;4860355;29;20041;-73
2022/03/03 00:59:16;;;;;;;6.78;5.43;;;-3.40;99.90;;;;;;4873935;29;20053;-74
2022/03/03 01:01:44;;;;;;;8.10;5.72;;;-3.30;99.90;;;;;;4873838;29;20532;-73
2022/03/03 01:04:13;;;;;;;7.05;5.97;;;-3.40;99.90;;;;;;4873459;29;20053;-74
2022/03/03 01:06:41;;;;;;;8.82;5.55;;;-3.40;99.90;;;;;;4873543;29;20067;-73
2022/03/03 01:09:08;;;;;;;5.40;4.90;;;-3.40;99.90;;;;;;4873190;29;20059;-73
2022/03/03 01:11:36;;;;;;;9.55;7.20;;;-3.40;99.90;;;;;;4872800;29;20076;-73
2022/03/03 01:14:04;;;;;;;6.50;5.20;;;-3.40;99.90;;;;;;4874039;29;20055;-73
2022/03/03 01:16:32;;;;;;;10.35;6.43;;;-3.40;99.90;;;;;;4873463;29;20060;-73
2022/03/03 01:18:59;;;;;;;6.25;5.55;;;-3.40;99.90;;;;;;4870990;29;20049;-73
2022/03/03 01:21:27;;;;;;;6.82;6.28;;;-3.40;99.90;;;;;;4854699;29;20064;-73
2022/03/03 01:23:55;;;;;;;6.47;4.95;;;-3.40;99.90;;;;;;4854965;29;20499;-73
2022/03/03 01:26:22;;;;;;;7.35;6.30;;;-3.40;99.90;;;;;;4854597;29;20064;-74
2022/03/03 01:28:53;;;;;;;10.95;7.47;;;-3.40;99.90;;;;;;4854503;29;20057;-73
2022/03/03 01:31:28;;;;;;;9.52;6.28;;;-3.40;99.90;;;;;;4854806;29;20095;-73
2022/03/03 01:33:56;;;;;;;6.53;5.53;;;-3.60;99.90;;;;;;4855365;29;20054;-73
2022/03/03 01:36:23;;;;;;;7.15;4.93;;;-3.70;99.90;;;;;;4873168;29;20842;-73
2022/03/03 01:38:51;;;;;;;10.43;5.85;;;-3.70;99.90;;;;;;4872850;29;20060;-73
2022/03/03 01:41:19;;;;;;;5.97;5.22;;;-3.50;99.90;;;;;;4871396;29;20045;-73
2022/03/03 01:44:06;;;;;;;6.80;5.50;;;-3.30;99.90;;;;;;4870962;29;20053;-73
2022/03/03 01:47:31;;;;;;;9.93;6.47;;;-3.20;99.90;;;;;;4873671;29;20491;-73
2022/03/03 01:50:28;;;;;;;8.40;6.47;;;-3.90;99.90;;;;;;4844642;29;20058;-73
2022/03/03 01:53:37;;;;;;;10.25;5.22;;;-4.00;99.90;;;;;;4854619;29;20046;-73
2022/03/03 01:57:06;;;;;;;13.88;6.47;;;-4.10;99.90;;;;;;4853975;29;20049;-73
2022/03/03 02:00:10;;;;;;;9.73;4.25;;;-4.00;99.90;;;;;;4854120;29;20049;-73
2022/03/03 02:02:39;;;;;;;9.10;4.80;;;-4.00;99.90;;;;;;4854238;29;20547;-73
2022/03/03 02:05:07;;;;;;;7.70;6.70;;;-3.90;99.90;;;;;;4853887;29;20415;-73
2022/03/03 02:07:35;;;;;;;7.50;6.35;;;-3.70;99.90;;;;;;4854351;29;20399;-73
2022/03/03 02:10:04;;;;;;;10.90;7.35;;;-3.50;99.90;;;;;;4853811;29;20060;-73
2022/03/03 02:12:32;;;;;;;7.22;5.53;;;-3.40;99.90;;;;;;4854264;29;20057;-73
2022/03/03 02:15:00;;;;;;;10.15;7.45;;;-3.50;99.90;;;;;;4854353;29;20060;-73
2022/03/03 02:17:28;;;;;;;6.38;5.50;;;-4.00;99.90;;;;;;4854213;29;20062;-73
2022/03/03 02:19:57;;;;;;;6.57;5.15;;;-4.10;99.90;;;;;;4871759;29;20049;-73
2022/03/03 02:22:24;;;;;;;10.07;6.13;;;-4.10;99.90;;;;;;4873417;29;20475;-73
2022/03/03 02:24:52;;;;;;;10.00;6.97;;;-4.00;99.90;;;;;;4872127;29;20490;-73
2022/03/03 02:27:20;;;;;;;8.02;5.38;;;-3.90;99.90;;;;;;4873278;29;20060;-73
2022/03/03 02:29:49;;;;;;;11.68;6.28;;;-3.90;99.90;;;;;;4872191;29;20581;-73
2022/03/03 02:32:17;;;;;;;8.10;5.90;;;-3.80;99.90;;;;;;4873012;29;20041;-73
2022/03/03 02:34:50;;;;;;;8.88;6.95;;;-3.70;99.90;;;;;;4856559;29;20044;-73
2022/03/03 02:37:21;;;;;;;9.02;5.28;;;-3.80;99.90;;;;;;4872793;29;20060;-73
2022/03/03 02:39:49;;;;;;;12.45;6.40;;;-3.80;99.90;;;;;;4854824;29;20068;-73
2022/03/03 02:42:19;;;;;;;8.45;6.15;;;-3.90;99.90;;;;;;4870791;29;20057;-73
2022/03/03 02:44:46;;;;;;;6.82;5.22;;;-3.90;99.90;;;;;;4854185;29;20057;-73
2022/03/03 02:47:14;;;;;;;7.22;5.75;;;-4.00;99.90;;;;;;4854919;29;20054;-73
2022/03/03 02:49:42;;;;;;;9.32;5.57;;;-4.10;99.90;;;;;;4862451;29;20789;-73
2022/03/03 02:52:09;;;;;;;12.32;5.43;;;-4.00;99.90;;;;;;4872743;29;20045;-73
2022/03/03 02:54:37;;;;;;;9.70;6.38;;;-4.00;99.90;;;;;;4872503;29;20068;-73
2022/03/03 02:59:52;;;;;;;6.82;5.55;;;-3.90;99.90;;;;;;4872464;29;20502;-73
2022/03/03 03:02:19;;;;;;;9.32;6.65;;;-3.90;99.90;;;;;;4873156;29;20052;-81
2022/03/03 03:04:47;;;;;;;11.02;8.35;;;-3.90;99.90;;;;;;4872513;29;20065;-81
2022/03/03 03:07:15;;;;;;;10.00;8.35;;;-3.90;99.90;;;;;;4872964;29;20483;-81
2022/03/03 03:09:43;;;;;;;6.93;5.05;;;-3.90;99.90;;;;;;4871690;29;20049;-81
2022/03/03 03:12:11;;;;;;;7.95;6.45;;;-3.90;99.90;;;;;;4872628;29;20060;-81
2022/03/03 03:14:38;;;;;;;9.15;5.38;;;-3.90;99.90;;;;;;4875989;29;20057;-81
2022/03/03 03:17:06;;;;;;;9.73;5.60;;;-3.90;99.90;;;;;;4876536;29;20057;-81
2022/03/03 03:19:34;;;;;;;8.23;7.63;;;-3.80;99.90;;;;;;4875627;29;20060;-81
2022/03/03 03:22:03;;;;;;;8.82;7.38;;;-3.90;99.90;;;;;;4876554;29;20064;-81
2022/03/03 03:24:31;;;;;;;6.22;5.63;;;-4.30;99.90;;;;;;4875798;29;20049;-81
2022/03/03 03:26:58;;;;;;;11.38;6.93;;;-4.40;99.90;;;;;;4876578;29;20056;-81
2022/03/03 03:29:26;;;;;;;6.88;5.35;;;-4.40;99.90;;;;;;4875581;29;20144;-81
2022/03/03 03:31:54;;;;;;;13.25;6.80;;;-4.20;99.90;;;;;;4875614;29;20068;-81
2022/03/03 03:34:21;;;;;;;9.18;7.13;;;-4.10;99.90;;;;;;4875899;29;20053;-81
2022/03/03 03:36:55;;;;;;;9.40;8.32;;;-4.00;99.90;;;;;;4875557;29;20049;-81
2022/03/03 03:39:22;;;;;;;7.70;6.80;;;-4.00;99.90;;;;;;4875694;29;20057;-81
2022/03/03 03:41:50;;;;;;;17.30;6.72;;;-4.40;99.90;;;;;;4874929;29;20053;-81
2022/03/03 03:44:18;;;;;;;8.55;7.63;;;-4.50;99.90;;;;;;4875320;29;20057;-81
2022/03/03 03:46:45;;;;;;;15.00;6.82;;;-4.40;99.90;;;;;;4875677;29;20049;-81
2022/03/03 03:49:13;;;;;;;11.18;7.40;;;-4.30;99.90;;;;;;4869625;29;20068;-81
2022/03/03 03:51:41;;;;;;;10.82;6.65;;;-4.50;99.90;;;;;;4856707;29;20061;-81
2022/03/03 03:54:10;;;;;;;8.15;5.68;;;-4.60;99.90;;;;;;4857573;29;20053;-81
2022/03/03 03:56:39;;;;;;;18.87;8.40;;;-4.60;99.90;;;;;;4840098;29;20049;-81
2022/03/03 03:59:07;;;;;;;10.80;5.90;;;-4.50;99.90;;;;;;4856849;29;20053;-81
2022/03/03 04:01:34;;;;;;;11.25;6.30;;;-4.40;99.90;;;;;;4856595;29;20049;-81
2022/03/03 04:04:03;;;;;;;8.60;7.75;;;-4.30;99.90;;;;;;4856497;29;20046;-81
2022/03/03 04:06:32;;;;;;;8.35;6.22;;;-4.20;99.90;;;;;;4856389;29;20062;-82
2022/03/03 04:09:00;;;;;;;7.65;5.25;;;-4.40;99.90;;;;;;4856029;29;20060;-81
2022/03/03 04:11:27;;;;;;;9.38;6.22;;;-4.80;99.90;;;;;;4856155;29;20053;-81
2022/03/03 04:13:56;;;;;;;12.40;7.32;;;-4.90;99.90;;;;;;4839136;29;20049;-81
2022/03/03 04:16:25;;;;;;;8.18;5.72;;;-4.80;99.90;;;;;;4856124;29;20053;-81
2022/03/03 04:18:53;;;;;;;6.00;5.38;;;-4.70;99.90;;;;;;4865708;29;20057;-81
2022/03/03 04:21:21;;;;;;;10.95;6.35;;;-4.60;99.90;;;;;;4874358;29;20049;-81
2022/03/03 04:23:48;;;;;;;10.75;7.18;;;-4.50;99.90;;;;;;4874506;29;20103;-81
2022/03/03 04:26:16;;;;;;;11.43;5.65;;;-4.50;99.90;;;;;;4874442;29;20048;-81
2022/03/03 04:28:44;;;;;;;8.00;7.30;;;-4.50;99.90;;;;;;4874487;29;20064;-81
2022/03/03 04:31:12;;;;;;;11.32;7.50;;;-4.50;99.90;;;;;;4875074;29;20049;-81
2022/03/03 04:33:40;;;;;;;9.75;6.72;;;-4.60;99.90;;;;;;4874667;29;20045;-81
2022/03/03 04:36:07;;;;;;;10.73;7.07;;;-4.50;99.90;;;;;;4874402;29;20415;-81
2022/03/03 04:38:35;;;;;;;10.18;6.32;;;-4.40;99.90;;;;;;4874497;29;20052;-81
2022/03/03 04:41:03;;;;;;;11.23;8.00;;;-4.80;99.90;;;;;;4873354;29;20057;-81
2022/03/03 04:43:30;;;;;;;10.05;5.82;;;-5.00;99.90;;;;;;4874670;29;20056;-80
2022/03/03 04:45:58;;;;;;;7.85;7.15;;;-5.10;99.90;;;;;;4873672;29;20052;-81
2022/03/03 04:48:29;;;;;;;8.93;6.53;;;-5.10;99.90;;;;;;4873706;29;20052;-81
2022/03/03 04:50:58;;;;;;;7.00;6.07;;;-5.10;99.90;;;;;;4839404;29;20062;-81
2022/03/03 04:53:27;;;;;;;6.25;5.28;;;-5.00;99.90;;;;;;4855487;29;20423;-80
2022/03/03 04:55:55;;;;;;;7.05;6.35;;;-4.90;99.90;;;;;;4855228;29;20046;-81
2022/03/03 04:58:23;;;;;;;12.85;7.05;;;-5.00;99.90;;;;;;4856797;29;20060;-81
2022/03/03 05:00:51;;;;;;;12.55;7.30;;;-4.90;99.90;;;;;;4874244;29;20056;-81
2022/03/03 05:03:20;;;;;;;8.45;6.85;;;-4.80;99.90;;;;;;4874738;29;20076;-81
2022/03/03 05:05:47;;;;;;;11.50;6.95;;;-4.80;99.90;;;;;;4873692;29;20506;-80
2022/03/03 05:08:15;;;;;;;8.98;5.18;;;-4.70;99.90;;;;;;4873545;29;20053;-81
2022/03/03 05:10:43;;;;;;;8.73;7.90;;;-4.60;99.90;;;;;;4873449;29;20060;-81
2022/03/03 05:13:12;;;;;;;11.77;6.80;;;-4.60;99.90;;;;;;4873657;29;20049;-81
2022/03/03 05:15:44;;;;;;;7.90;5.45;;;-4.60;99.90;;;;;;4873690;29;20049;-81
2022/03/03 05:18:12;;;;;;;10.55;6.47;;;-5.10;99.90;;;;;;4873886;29;20053;-80
2022/03/03 05:20:40;;;;;;;9.98;6.63;;;-5.40;99.90;;;;;;4872517;29;20500;-72
2022/03/03 05:23:09;;;;;;;8.60;5.63;;;-5.50;99.90;;;;;;4874278;29;20072;-72
2022/03/03 05:25:36;;;;;;;7.38;6.63;;;-5.60;99.90;;;;;;4856087;29;20057;-72
2022/03/03 05:28:04;;;;;;;11.15;6.82;;;-5.60;99.90;;;;;;4873043;29;20060;-72
2022/03/03 05:30:32;;;;;;;12.18;8.75;;;-5.60;99.90;;;;;;4873735;29;20053;-72
2022/03/03 05:32:59;;;;;;;10.57;6.53;;;-5.60;99.90;;;;;;4873140;29;20056;-72
2022/03/03 05:35:27;;;;;;;7.40;6.53;;;-5.60;99.90;;;;;;4873023;29;20391;-72
2022/03/03 05:37:55;;;;;;;10.57;7.78;;;-5.50;99.90;;;;;;4872615;29;20399;-73
2022/03/03 05:40:24;;;;;;;8.65;5.80;;;-5.50;99.90;;;;;;4872497;29;20057;-72
2022/03/03 05:42:52;;;;;;;8.80;8.10;;;-5.40;99.90;;;;;;4866831;29;20049;-72
2022/03/03 05:45:20;;;;;;;9.68;6.78;;;-5.20;99.90;;;;;;4854388;29;20798;-72
2022/03/03 05:47:48;;;;;;;10.27;6.63;;;-5.20;99.90;;;;;;4854124;29;20046;-72
2022/03/03 05:50:16;;;;;;;14.27;8.05;;;-5.20;99.90;;;;;;4854461;29;20053;-72
2022/03/03 05:52:43;;;;;;;8.13;6.35;;;-5.20;99.90;;;;;;4854440;29;20053;-72
2022/03/03 05:55:12;;;;;;;10.27;6.20;;;-5.20;99.90;;;;;;4859092;29;20064;-72
2022/03/03 05:57:45;;;;;;;7.55;6.38;;;-5.20;99.90;;;;;;4872554;29;20056;-72
2022/03/03 06:00:17;;;;;;;10.35;6.32;;;-5.20;99.90;;;;;;4872334;29;20053;-72
2022/03/03 06:02:53;;;;;;;10.52;6.28;;;-5.10;99.90;;;;;;4873206;29;20056;-72
2022/03/03 06:05:26;;;;;;;11.25;7.15;;;-5.00;99.90;;;;;;4869556;29;20419;-72
2022/03/03 06:08:06;;;;;;;8.48;6.38;;;-5.00;99.90;;;;;;4872452;29;20491;-72
2022/03/03 06:10:35;;;;;;;9.00;6.47;;;-5.20;99.90;;;;;;4855113;29;20056;-72
2022/03/03 06:13:23;;;;;;;12.85;7.53;;;-5.50;99.90;;;;;;4852657;29;20080;-72
2022/03/03 06:15:52;;;;;;;6.10;5.47;;;-5.70;99.90;;;;;;4854152;29;20060;-72
2022/03/03 06:18:27;;;;;;;10.48;6.97;;;-5.60;99.90;;;;;;4859682;29;20057;-72
2022/03/03 06:20:55;;;;;;;10.77;6.90;;;-5.30;99.90;;;;;;4871998;29;20075;-72
2022/03/03 06:23:23;;;;;;;14.30;8.68;;;-5.00;99.90;;;;;;4873215;29;20415;-72
2022/03/03 06:26:09;;;;;;;11.88;7.40;;;-4.80;99.90;;;;;;4872094;29;20063;-72
2022/03/03 06:28:37;;;;;;;11.07;7.40;;;-4.70;99.90;;;;;;4871858;29;20411;-72
2022/03/03 06:31:06;;;;;;;11.98;7.90;;;-4.90;99.90;;;;;;4872904;29;20064;-72
2022/03/03 06:33:35;;;;;;;9.88;7.47;;;-5.00;99.90;;;;;;4855500;29;20068;-72
2022/03/03 06:36:03;;;;;;;13.15;7.47;;;-4.80;99.90;;;;;;4872162;29;20057;-72
2022/03/03 06:38:31;;;;;;;12.57;8.52;;;-4.70;99.90;;;;;;4872744;29;20407;-72
2022/03/03 06:41:05;;;;;;;15.05;7.22;;;-4.60;99.90;;;;;;4871477;29;20057;-72
2022/03/03 06:43:35;;;;;;;8.13;6.63;;;-4.50;99.90;;;;;;4860271;29;20057;-72
2022/03/03 06:46:04;;;;;;;11.52;6.90;;;-4.40;99.90;;;;;;4854118;29;20053;-72
2022/03/03 06:48:32;;;;;;;21.70;8.43;;;-4.30;99.90;;;;;;4856366;29;20049;-72
2022/03/03 06:51:03;;;;;;;15.77;8.27;;;-4.10;99.90;;;;;;4857482;29;20496;-72
2022/03/03 06:53:36;;;;;;;13.35;8.10;;;-4.00;99.90;;;;;;4857567;29;20046;-72
2022/03/03 06:56:09;;;;;;;20.42;10.32;;;-3.90;99.90;;;;;;4857014;29;20726;-72
2022/03/03 06:58:37;;;;;;;10.50;6.75;;;-3.80;99.90;;;;;;4857632;29;20060;-72
2022/03/03 07:01:09;;;;;;;10.73;7.95;;;-3.60;99.90;;;;;;4857378;29;20060;-72
2022/03/03 07:03:41;;;;;;;12.23;8.07;;;-3.60;99.90;;;;;;4857470;29;20049;-73
2022/03/03 07:06:13;;;;;;;12.18;9.02;;;-3.40;99.90;;;;;;4857415;29;20790;-73
2022/03/03 07:08:43;;;;;;;18.23;7.20;;;-3.20;99.90;;;;;;4856673;29;20069;-73
2022/03/03 07:11:11;;;;;;;12.80;8.45;;;-3.00;99.90;;;;;;4856835;29;20053;-73
2022/03/03 07:13:39;;;;;;;17.30;8.38;;;-2.80;99.90;;;;;;4856916;29;20816;-73
2022/03/03 07:16:39;;;;;;;10.70;8.98;;;-2.50;99.90;;;;;;4857228;29;20045;-73
2022/03/03 07:19:17;;;;;;;11.55;7.82;;;-2.10;99.90;;;;;;4857341;29;20053;-73
2022/03/03 07:21:48;;;;;;;13.00;8.63;;;-1.60;99.90;;;;;;4856709;29;20105;-73
2022/03/03 07:24:25;;;;;;;15.93;11.03;;;-1.30;99.90;;;;;;4857021;29;20065;-74
2022/03/03 07:26:58;;;;;;;12.73;10.32;;;-1.20;99.90;;;;;;4856948;29;20170;-73
2022/03/03 07:29:31;;;;;;;17.00;11.95;;;-1.00;99.90;;;;;;4856665;29;20092;-73
2022/03/03 07:32:05;;;;;;;17.48;9.35;;;-0.80;99.90;;;;;;4857087;29;20053;-73
2022/03/03 07:34:35;;;;;;;11.15;8.90;;;-0.50;99.90;;;;;;4862348;29;20060;-73
2022/03/03 07:37:10;;;;;;;11.35;6.95;;;-0.10;99.90;;;;;;4875189;29;20574;-73
2022/03/03 07:39:43;;;;;;;15.20;10.18;;;0.30;99.90;;;;;;4874395;29;20064;-74
2022/03/03 07:42:17;;;;;;;12.60;9.27;;;0.50;99.90;;;;;;4875263;29;20052;-73
2022/03/03 07:44:46;;;;;;;10.15;8.65;;;0.80;99.90;;;;;;4875339;29;20084;-74
2022/03/03 07:47:14;;;;;;;16.85;8.07;;;0.90;99.90;;;;;;4875084;29;20071;-74
2022/03/03 07:49:45;;;;;;;11.80;9.55;;;1.00;99.90;;;;;;4865784;29;20058;-74
2022/03/03 07:52:12;;;;;;;13.45;8.45;;;1.20;99.90;;;;;;4843349;29;20061;-74
2022/03/03 07:54:40;;;;;;;12.90;8.32;;;1.60;99.90;;;;;;4856176;29;20373;-74
2022/03/03 07:57:12;;;;;;;16.98;8.75;;;2.00;99.90;;;;;;4856226;29;20053;-75
2022/03/03 07:59:45;;;;;;;14.80;6.40;;;2.20;99.90;;;;;;4855352;29;20056;-74
2022/03/03 08:02:22;;;;;;;8.60;6.85;;;2.50;99.90;;;;;;4870586;29;20419;-75
2022/03/03 08:04:51;;;;;;;7.97;6.03;;;2.30;99.90;;;;;;4874890;29;20067;-75
2022/03/03 08:07:19;;;;;;;9.30;6.78;;;2.40;99.90;;;;;;4875003;29;20061;-75
2022/03/03 08:09:48;;;;;;;8.95;8.07;;;2.80;99.90;;;;;;4873385;29;20057;-75
2022/03/03 08:12:22;;;;;;;8.95;7.45;;;3.10;99.90;;;;;;4874727;29;20052;-75
2022/03/03 08:14:50;;;;;;;5.80;5.20;;;3.40;99.90;;;;;;4875283;29;20053;-75
2022/03/03 08:17:19;;;;;;;6.78;5.35;;;3.50;99.90;;;;;;4874384;29;20084;-75
2022/03/03 08:19:47;;;;;;;7.80;5.15;;;3.90;99.90;;;;;;4873930;29;20744;-76
2022/03/03 08:22:15;;;;;;;9.27;6.03;;;3.90;99.90;;;;;;4875202;29;20506;-76
2022/03/03 08:24:43;;;;;;;10.07;6.78;;;3.80;99.90;;;;;;4874107;29;20052;-75
2022/03/03 08:27:12;;;;;;;13.63;10.13;;;3.60;99.90;;;;;;4874666;29;20049;-75
2022/03/03 08:29:40;;;;;;;9.35;8.45;;;3.40;99.90;;;;;;4873911;29;20053;-75
2022/03/03 08:32:16;;;;;;;15.75;9.85;;;3.30;99.90;;;;;;4874262;29;20049;-75
2022/03/03 08:35:03;;;;;;;10.82;9.82;;;3.40;99.90;;;;;;4873078;29;21205;-76
2022/03/03 08:37:41;;;;;;;;;;;3.40;99.90;;;;;;4864475;29;20060;-82
2022/03/03 08:40:31;;;;;;;10.98;7.55;;;3.20;99.90;;;;;;4830828;29;20274;-86
2022/03/03 08:43:04;;;;;;;11.75;10.40;;;3.30;99.90;;;;;;4863977;29;20491;-83
2022/03/03 08:45:35;;;;;;;11.38;8.82;;;3.30;99.90;;;;;;4863848;29;20531;-83
2022/03/03 08:48:10;;;;;;;12.63;10.05;;;3.50;99.90;;;;;;4862554;29;20045;-85
2022/03/03 08:50:40;;;;;;;10.38;7.40;;;3.70;99.90;;;;;;4863109;29;20057;-85
2022/03/03 08:53:09;;;;;;;9.77;8.65;;;3.90;99.90;;;;;;4873703;29;20072;-83
2022/03/03 08:55:38;;;;;;;14.43;9.05;;;3.90;99.90;;;;;;4873532;29;20407;-82
2022/03/03 08:58:06;;;;;;;12.27;7.53;;;4.20;99.90;;;;;;4858302;29;20053;-83
2022/03/03 09:00:34;;;;;;;14.10;8.10;;;4.30;99.90;;;;;;4823319;29;20065;-82
2022/03/03 09:03:03;;;;;;;13.35;8.80;;;4.60;99.90;;;;;;4838963;29;20045;-83
2022/03/03 09:05:32;;;;;;;9.02;7.45;;;4.80;99.90;;;;;;4854741;29;20045;-83
2022/03/03 09:07:59;;;;;;;9.00;7.70;;;5.00;99.90;;;;;;4854557;29;20057;-84
2022/03/03 09:10:28;;;;;;;13.02;8.13;;;5.20;99.90;;;;;;4867211;29;20053;-87
2022/03/03 09:12:56;;;;;;;11.68;9.07;;;5.30;99.90;;;;;;4873573;29;20060;-83
2022/03/03 09:15:24;;;;;;;9.35;8.40;;;5.40;99.90;;;;;;4874072;29;20068;-84
2022/03/03 09:17:53;;;;;;;11.30;8.98;;;5.50;99.90;;;;;;4864193;29;20056;-87
2022/03/03 09:20:28;;;;;;;9.23;8.07;;;5.60;99.90;;;;;;4861472;29;20064;-88
2022/03/03 09:23:08;;;;;;;11.57;8.98;;;5.80;99.90;;;;;;4858202;29;20523;-88
2022/03/03 09:25:43;;;;;;;15.82;8.88;;;6.20;99.90;;;;;;4868494;29;20041;-88
2022/03/03 09:28:41;;;;;;;10.00;7.55;;;6.60;99.90;;;;;;4869710;29;20049;-89
2022/03/03 09:31:39;;;;;;;10.32;6.68;;;6.70;99.90;;;;;;4844781;29;20391;-87
2022/03/03 09:34:12;;;;;;;8.80;7.93;;;7.00;99.90;;;;;;4857682;29;20056;-87
2022/03/03 09:36:41;;;;;;;11.00;7.63;;;7.10;99.40;;;;;;4873371;29;20518;-90
2022/03/03 09:39:12;;;;;;;8.02;7.28;;;7.40;96.60;;;;;;4855920;29;20045;-90
2022/03/03 09:41:42;;;;;;;;;;;7.20;93.60;;;;;;4840273;29;20047;-88
2022/03/03 09:44:19;;;;;;;23.45;7.32;;;6.50;95.90;;;;;;4854908;29;19928;-90
2022/03/03 09:46:48;;;;;;;13.60;7.88;;;6.40;99.20;;;;;;4856315;29;20067;-84
2022/03/03 09:49:19;;;;;;;9.30;7.65;;;6.70;99.90;;;;;;4854121;29;20061;-87
2022/03/03 09:51:53;;;;;;;12.70;8.82;;;6.90;99.90;;;;;;4849390;29;20057;-86
2022/03/03 09:54:23;;;;;;;9.43;7.57;;;7.10;99.90;;;;;;4851454;29;20056;-86
2022/03/03 09:56:52;;;;;;;12.30;7.33;;;7.20;99.90;;;;;;4856513;29;20821;-84
2022/03/03 09:59:22;;;;;;;7.88;6.40;;;7.30;99.90;;;;;;4873107;29;20053;-83
2022/03/03 10:02:02;;;;;;;6.63;4.88;;;7.30;96.80;;;;;;4871602;29;20052;-89
2022/03/03 10:04:32;;;;;;;10.02;7.13;;;7.10;94.30;;;;;;4873133;29;20060;-90
2022/03/03 10:07:23;;;;;;;11.23;5.75;;;6.70;94.60;;;;;;4859657;29;20053;-89
2022/03/03 10:10:07;;;;;;;7.20;4.80;;;6.60;97.10;;;;;;4835294;29;20053;-77
2022/03/03 10:12:45;;;;;;;7.65;4.53;;;6.60;97.30;;;;;;4853651;29;20072;-77
2022/03/03 10:15:16;;;;;;;10.10;6.18;;;6.60;95.80;;;;;;4853877;29;20060;-78
2022/03/03 10:17:46;;;;;;;8.32;5.22;;;6.40;96.40;;;;;;4872114;29;20171;-78
2022/03/03 10:20:15;;;;;;;10.82;8.48;;;6.60;96.20;;;;;;4872346;29;20049;-78
2022/03/03 10:22:57;;;;;;;8.50;6.78;;;6.60;95.20;;;;;;4859177;29;20064;-78
2022/03/03 10:25:42;;;;;;;8.35;6.60;;;6.70;94.50;;;;;;4874391;29;20063;-77
2022/03/03 10:28:18;;;;;;;11.70;8.90;;;6.70;93.80;;;;;;4845884;29;20069;-76
2022/03/03 10:31:04;;;;;;;8.38;6.63;;;6.70;93.80;;;;;;4843614;29;20046;-76
2022/03/03 10:33:37;;;;;;;9.25;7.47;;;6.70;93.00;;;;;;4862835;29;20041;-76
2022/03/03 10:36:09;;;;;;;9.90;6.53;;;6.70;92.60;;;;;;4878251;29;20045;-76
2022/03/03 10:38:54;;;;;;;10.50;6.13;;;6.80;90.90;;;;;;4878449;29;20692;-76
2022/03/03 10:41:35;;;;;;;6.00;5.50;;;6.90;89.90;;;;;;4877477;29;20041;-76
2022/03/03 10:44:10;;;;;;;7.32;5.70;;;6.90;87.20;;;;;;4861443;29;20056;-76
2022/03/03 10:47:01;;;;;;;8.13;7.32;;;7.10;88.30;;;;;;4877832;29;20053;-76
2022/03/03 10:49:33;;;;;;;9.45;6.22;;;7.20;87.80;;;;;;4869892;29;20049;-75
2022/03/03 10:52:20;;;;;;;9.63;6.90;;;7.30;80.30;;;;;;4864641;29;20045;-76
2022/03/03 10:55:05;;;;;;;12.05;6.25;;;7.10;84.40;;;;;;4861718;29;20057;-76
2022/03/03 10:57:43;;;;;;;5.85;4.95;;;7.20;84.50;;;;;;4870879;29;20570;-76
2022/03/03 11:00:23;;;;;;;11.05;6.30;;;7.30;77.80;;;;;;4860708;29;20045;-75
2022/03/03 11:02:57;;;;;;;9.00;6.13;;;7.40;82.60;;;;;;4878836;29;20060;-75
2022/03/03 11:05:29;;;;;;;10.57;6.38;;;7.40;82.90;;;;;;4878081;29;20053;-76
2022/03/03 11:08:00;;;;;;;7.78;5.82;;;7.60;75.00;;;;;;4877799;29;20048;-76
2022/03/03 11:10:33;;;;;;;8.90;6.63;;;7.50;73.70;;;;;;4860483;29;20083;-76
2022/03/03 11:13:06;;;;;;;7.03;6.07;;;7.50;73.70;;;;;;4878158;29;20056;-75
2022/03/03 11:15:38;;;;;;;7.75;5.47;;;7.60;73.90;;;;;;4877993;29;20057;-76
2022/03/03 11:18:09;;;;;;;8.98;7.35;;;7.70;75.60;;;;;;4878281;29;20073;-76
2022/03/03 11:20:37;;;;;;;12.30;5.95;;;7.80;81.20;;;;;;4860871;29;20053;-76
2022/03/03 11:23:05;;;;;;;6.15;5.55;;;7.90;78.50;;;;;;4878423;29;20045;-76
2022/03/03 11:25:35;;;;;;;7.35;6.35;;;7.90;72.50;;;;;;4877464;29;20049;-75
2022/03/03 11:28:09;;;;;;;9.65;5.10;;;7.70;75.70;;;;;;4878025;29;20060;-76
2022/03/03 11:30:37;;;;;;;8.82;6.93;;;7.70;73.30;;;;;;4872633;29;20048;-75
2022/03/03 11:33:30;;;;;;;9.00;5.65;;;7.70;70.20;;;;;;4859628;29;20401;-75
2022/03/03 11:36:05;;;;;;;8.32;5.57;;;7.90;72.00;;;;;;4872339;29;20060;-76
2022/03/03 11:38:52;;;;;;;5.07;4.38;;;8.00;73.10;;;;;;4875276;29;20045;-76
2022/03/03 11:41:25;;;;;;;7.18;6.47;;;8.00;74.10;;;;;;4874303;29;20076;-76
2022/03/03 11:44:01;;;;;;;12.68;8.27;;;8.10;71.30;;;;;;4860174;29;20073;-76
2022/03/03 11:46:50;;;;;;;5.47;5.03;;;8.20;72.40;;;;;;4856924;29;20087;-76
2022/03/03 11:49:28;;;;;;;6.15;5.55;;;8.10;77.50;;;;;;4855279;29;20427;-76
2022/03/03 11:52:08;;;;;;;12.70;5.30;;;7.90;67.00;;;;;;4865452;29;20060;-76
2022/03/03 11:54:38;;;;;;;20.48;7.15;;;7.90;68.10;;;;;;4870751;29;20127;-76
2022/03/03 11:57:07;;;;;;;5.22;4.80;;;8.10;66.00;;;;;;4856512;29;20054;-78
2022/03/03 11:59:38;;;;;;;11.65;9.80;;;8.00;70.40;;;;;;4856530;29;20082;-78
2022/03/03 12:02:06;;;;;;;8.35;5.85;;;8.00;71.80;;;;;;4862035;29;20049;-78
2022/03/03 12:04:34;;;;;;;6.18;5.57;;;7.90;69.00;;;;;;4874468;29;20053;-78
2022/03/03 12:07:02;;;;;;;6.00;5.38;;;8.00;67.50;;;;;;4874978;29;20474;-78
2022/03/03 12:09:33;;;;;;;7.72;5.28;;;7.90;65.00;;;;;;4874005;29;20064;-78
2022/03/03 12:12:12;;;;;;;9.85;6.03;;;8.00;63.70;;;;;;4873238;29;20037;-79
2022/03/03 12:14:59;;;;;;;7.97;5.93;;;8.00;62.90;;;;;;4875206;29;20060;-78
2022/03/03 12:17:54;;;;;;;6.15;5.35;;;7.90;61.80;;;;;;4874636;29;20056;-78
2022/03/03 12:20:30;;;;;;;6.40;5.32;;;8.00;59.70;;;;;;4838483;29;20049;-78
2022/03/03 12:23:29;;;;;;;7.45;5.97;;;8.10;62.10;;;;;;4850954;29;20041;-80
2022/03/03 12:25:59;;;;;;;10.52;5.78;;;8.10;58.20;;;;;;4838613;29;20420;-78
2022/03/03 12:28:45;;;;;;;6.78;5.40;;;7.90;64.30;;;;;;4868198;29;20049;-79
2022/03/03 12:31:20;;;;;;;7.43;5.03;;;7.90;61.90;;;;;;4867281;29;20052;-79
2022/03/03 12:34:06;;;;;;;5.10;4.60;;;8.00;59.20;;;;;;4842054;29;20114;-79
2022/03/03 12:36:36;;;;;;;7.93;5.30;;;8.00;59.60;;;;;;4873031;29;20057;-80
2022/03/03 12:39:06;;;;;;;7.28;4.18;;;8.00;65.20;;;;;;4857688;29;20408;-79
2022/03/03 12:41:35;;;;;;;6.57;5.40;;;8.00;60.20;;;;;;4873607;29;20060;-80
2022/03/03 12:44:05;;;;;;;10.20;7.35;;;8.00;65.10;;;;;;4874316;29;20052;-81
2022/03/03 12:46:35;;;;;;;10.77;6.05;;;8.10;61.10;;;;;;4872816;29;20059;-82
2022/03/03 12:49:08;;;;;;;12.85;9.93;;;8.00;62.70;;;;;;4869135;29;20054;-78
2022/03/03 12:51:47;;;;;;;5.05;4.70;;;8.00;61.80;;;;;;4855236;29;20079;-78
2022/03/03 12:54:19;;;;;;;15.65;6.60;;;7.90;59.10;;;;;;4839334;29;20420;-81
2022/03/03 12:57:04;;;;;;;9.82;7.00;;;8.10;62.00;;;;;;4841581;29;20052;-81
2022/03/03 12:59:32;;;;;;;6.25;5.18;;;8.10;58.20;;;;;;4838239;29;20069;-79
2022/03/03 13:02:00;;;;;;;8.93;6.32;;;8.00;56.90;;;;;;4845370;29;20728;-78
2022/03/03 13:04:43;;;;;;;6.10;5.50;;;8.00;59.30;;;;;;4846019;29;20057;-79
2022/03/03 13:07:11;;;;;;;4.45;3.63;;;7.80;58.70;;;;;;4855389;29;20053;-78
2022/03/03 13:09:53;;;;;;;8.75;6.60;;;8.10;56.10;;;;;;4854040;29;20053;-78
2022/03/03 13:12:21;;;;;;;5.70;4.60;;;7.90;55.70;;;;;;4822916;29;20054;-78
2022/03/03 13:14:57;;;;;;;6.30;5.63;;;8.10;58.20;;;;;;4855121;29;20053;-78